Skip Navigation Links Skip Navigation Links

Current Weather

Buckland, Alaska

For information only: do not use for flight planning or navigation.
Latest weather
Observation time Thursday, December 2, 2021 11:56 PM AKST
Local time Friday, December 3, 2021 1:05 AM AKST
Flight conditions Visual Meteorological Conditions
Winds
Wind direction South (180°)
Wind speed 12 mph
Visibility 10 mi.
Sky condition
Ceiling unlimited
Sky clear
Temperature -24°F
Dewpoint -29°F
Altimeter 30.42 in.Hg
Pressure change last 3 hours0.06 in.Hg
Pressure falling more slowly
Precipitation
Precipitation last 3 hours trace
Derived measurements
Relative humidity 76%
Wind chill -47°F
Density altitude -6622 ft.
Sea-level pressure 30.43 in.Hg
Remarks
Fully automated report.
Automated weather observing station with precipitation discriminator.
Freezing rain sensor not operating.
METAR PABL 030856Z AUTO 18010KT 10SM CLR M31/M34 A3042 RMK AO2 SLP304 60000 T13111339 56022 FZRANO

Settings

Location code

InnerDrive.Weather 4.0.6770.0 Release CLR 4.0.30319.42000
Copyright ©2018 Inner Drive Technology. All rights reserved. Portions Copyright ©1986-2018 David Braverman.

Find weather

Site navigation


Skip Navigation Links

Place info

Page info

PayPal - The safer, easier way to pay online!

Return home.

Copyright ©2021 Inner Drive Technology. Purveyors of fine, hand-crafted computer software. Page printed 2021-12-03T10:05:52 UTC.